sensor_id;sensor_type;location;lat;lon;timestamp;P1;durP1;ratioP1;P2;durP2;ratioP2
39612;SDS011;25303;48.896;13.342;2024-01-15T00:07:12;36.72;;;8.65;;
39612;SDS011;25303;48.896;13.342;2024-01-15T00:17:16;53.13;;;13.88;;
39612;SDS011;25303;48.896;13.342;2024-01-15T00:27:20;36.92;;;8.90;;
39612;SDS011;25303;48.896;13.342;2024-01-15T00:37:23;37.38;;;9.93;;
39612;SDS011;25303;48.896;13.342;2024-01-15T00:47:28;36.83;;;9.10;;
39612;SDS011;25303;48.896;13.342;2024-01-15T00:57:31;34.15;;;8.57;;
39612;SDS011;25303;48.896;13.342;2024-01-15T01:07:35;43.75;;;11.48;;
39612;SDS011;25303;48.896;13.342;2024-01-15T01:17:38;33.72;;;9.43;;
39612;SDS011;25303;48.896;13.342;2024-01-15T01:27:43;52.60;;;13.85;;
39612;SDS011;25303;48.896;13.342;2024-01-15T01:37:46;43.20;;;12.85;;
39612;SDS011;25303;48.896;13.342;2024-01-15T01:47:50;36.33;;;10.35;;
39612;SDS011;25303;48.896;13.342;2024-01-15T01:57:53;36.65;;;12.23;;
39612;SDS011;25303;48.896;13.342;2024-01-15T02:07:58;43.15;;;13.85;;
39612;SDS011;25303;48.896;13.342;2024-01-15T02:18:02;44.70;;;13.82;;
39612;SDS011;25303;48.896;13.342;2024-01-15T02:28:09;26.33;;;8.80;;
39612;SDS011;25303;48.896;13.342;2024-01-15T02:38:13;47.08;;;13.25;;
39612;SDS011;25303;48.896;13.342;2024-01-15T02:48:17;49.35;;;15.95;;
39612;SDS011;25303;48.896;13.342;2024-01-15T02:58:21;50.47;;;14.30;;
39612;SDS011;25303;48.896;13.342;2024-01-15T03:08:25;38.78;;;11.48;;
39612;SDS011;25303;48.896;13.342;2024-01-15T03:18:28;37.22;;;10.50;;
39612;SDS011;25303;48.896;13.342;2024-01-15T03:28:32;39.13;;;12.30;;
39612;SDS011;25303;48.896;13.342;2024-01-15T03:38:35;33.25;;;9.38;;
39612;SDS011;25303;48.896;13.342;2024-01-15T03:48:43;32.60;;;10.90;;
39612;SDS011;25303;48.896;13.342;2024-01-15T03:58:46;29.27;;;8.63;;
39612;SDS011;25303;48.896;13.342;2024-01-15T04:08:51;24.60;;;7.72;;
39612;SDS011;25303;48.896;13.342;2024-01-15T04:18:53;27.38;;;8.05;;
39612;SDS011;25303;48.896;13.342;2024-01-15T04:28:58;29.92;;;8.43;;
39612;SDS011;25303;48.896;13.342;2024-01-15T04:39:01;29.10;;;7.47;;
39612;SDS011;25303;48.896;13.342;2024-01-15T04:49:05;28.23;;;8.30;;
39612;SDS011;25303;48.896;13.342;2024-01-15T04:59:09;36.55;;;9.45;;
39612;SDS011;25303;48.896;13.342;2024-01-15T05:09:13;38.00;;;10.77;;
39612;SDS011;25303;48.896;13.342;2024-01-15T05:19:16;45.00;;;10.63;;
39612;SDS011;25303;48.896;13.342;2024-01-15T05:29:22;39.42;;;10.23;;
39612;SDS011;25303;48.896;13.342;2024-01-15T05:39:25;25.90;;;6.68;;
39612;SDS011;25303;48.896;13.342;2024-01-15T05:49:29;27.50;;;7.95;;
39612;SDS011;25303;48.896;13.342;2024-01-15T05:59:32;34.05;;;7.97;;
39612;SDS011;25303;48.896;13.342;2024-01-15T06:09:39;23.35;;;6.55;;
39612;SDS011;25303;48.896;13.342;2024-01-15T06:19:42;52.08;;;11.00;;
39612;SDS011;25303;48.896;13.342;2024-01-15T06:29:47;36.83;;;8.35;;
39612;SDS011;25303;48.896;13.342;2024-01-15T06:39:51;34.42;;;8.35;;
39612;SDS011;25303;48.896;13.342;2024-01-15T06:49:56;30.75;;;8.85;;
39612;SDS011;25303;48.896;13.342;2024-01-15T07:00:00;24.20;;;6.55;;
39612;SDS011;25303;48.896;13.342;2024-01-15T07:10:06;18.42;;;5.63;;
39612;SDS011;25303;48.896;13.342;2024-01-15T07:20:10;13.55;;;5.13;;
39612;SDS011;25303;48.896;13.342;2024-01-15T07:30:16;21.67;;;6.85;;
39612;SDS011;25303;48.896;13.342;2024-01-15T07:40:19;19.65;;;5.80;;
39612;SDS011;25303;48.896;13.342;2024-01-15T07:50:24;16.95;;;5.38;;
39612;SDS011;25303;48.896;13.342;2024-01-15T08:00:27;15.52;;;5.65;;
39612;SDS011;25303;48.896;13.342;2024-01-15T08:10:32;15.77;;;5.53;;
39612;SDS011;25303;48.896;13.342;2024-01-15T08:20:35;17.45;;;5.45;;
39612;SDS011;25303;48.896;13.342;2024-01-15T08:30:39;20.80;;;6.35;;
39612;SDS011;25303;48.896;13.342;2024-01-15T08:40:42;20.08;;;6.35;;
39612;SDS011;25303;48.896;13.342;2024-01-15T08:50:47;20.50;;;6.15;;
39612;SDS011;25303;48.896;13.342;2024-01-15T09:00:52;18.30;;;6.10;;
39612;SDS011;25303;48.896;13.342;2024-01-15T09:10:57;14.10;;;5.30;;
39612;SDS011;25303;48.896;13.342;2024-01-15T09:21:01;16.80;;;5.82;;
39612;SDS011;25303;48.896;13.342;2024-01-15T09:31:08;11.95;;;4.40;;
39612;SDS011;25303;48.896;13.342;2024-01-15T09:41:11;13.75;;;5.00;;
39612;SDS011;25303;48.896;13.342;2024-01-15T09:51:15;16.95;;;5.35;;
39612;SDS011;25303;48.896;13.342;2024-01-15T10:01:19;12.18;;;4.57;;
39612;SDS011;25303;48.896;13.342;2024-01-15T10:11:25;14.27;;;4.40;;
39612;SDS011;25303;48.896;13.342;2024-01-15T10:21:28;15.30;;;4.50;;
39612;SDS011;25303;48.896;13.342;2024-01-15T10:31:36;11.95;;;4.32;;
39612;SDS011;25303;48.896;13.342;2024-01-15T10:41:40;18.83;;;5.63;;
39612;SDS011;25303;48.896;13.342;2024-01-15T10:51:46;13.70;;;5.05;;
39612;SDS011;25303;48.896;13.342;2024-01-15T11:01:50;15.05;;;4.05;;
39612;SDS011;25303;48.896;13.342;2024-01-15T11:12:08;23.15;;;6.78;;
39612;SDS011;25303;48.896;13.342;2024-01-15T11:32:52;16.30;;;5.35;;
39612;SDS011;25303;48.896;13.342;2024-01-15T11:42:56;13.93;;;4.55;;
39612;SDS011;25303;48.896;13.342;2024-01-15T11:53:02;9.30;;;3.88;;
39612;SDS011;25303;48.896;13.342;2024-01-15T12:03:09;16.15;;;5.10;;
39612;SDS011;25303;48.896;13.342;2024-01-15T12:13:14;13.35;;;4.55;;
39612;SDS011;25303;48.896;13.342;2024-01-15T12:23:19;16.53;;;5.00;;
39612;SDS011;25303;48.896;13.342;2024-01-15T12:33:23;14.23;;;4.97;;
39612;SDS011;25303;48.896;13.342;2024-01-15T12:43:26;11.48;;;4.72;;
39612;SDS011;25303;48.896;13.342;2024-01-15T12:53:30;11.00;;;4.03;;
39612;SDS011;25303;48.896;13.342;2024-01-15T13:03:34;13.43;;;4.65;;
39612;SDS011;25303;48.896;13.342;2024-01-15T13:13:39;15.65;;;5.20;;
39612;SDS011;25303;48.896;13.342;2024-01-15T13:23:42;11.13;;;4.07;;
39612;SDS011;25303;48.896;13.342;2024-01-15T13:33:46;12.25;;;4.45;;
39612;SDS011;25303;48.896;13.342;2024-01-15T13:43:49;15.77;;;4.97;;
39612;SDS011;25303;48.896;13.342;2024-01-15T13:53:55;8.63;;;3.80;;
39612;SDS011;25303;48.896;13.342;2024-01-15T14:03:58;10.68;;;3.30;;
39612;SDS011;25303;48.896;13.342;2024-01-15T14:14:03;9.23;;;3.08;;
39612;SDS011;25303;48.896;13.342;2024-01-15T14:24:06;12.20;;;3.92;;
39612;SDS011;25303;48.896;13.342;2024-01-15T14:34:10;7.80;;;3.03;;
39612;SDS011;25303;48.896;13.342;2024-01-15T14:44:13;7.90;;;3.05;;
39612;SDS011;25303;48.896;13.342;2024-01-15T14:54:18;7.60;;;2.90;;
39612;SDS011;25303;48.896;13.342;2024-01-15T15:04:25;11.70;;;4.07;;
39612;SDS011;25303;48.896;13.342;2024-01-15T15:14:29;7.97;;;2.97;;
39612;SDS011;25303;48.896;13.342;2024-01-15T15:24:33;8.40;;;2.83;;
39612;SDS011;25303;48.896;13.342;2024-01-15T15:34:37;5.90;;;2.10;;
39612;SDS011;25303;48.896;13.342;2024-01-15T15:44:41;4.70;;;1.98;;
39612;SDS011;25303;48.896;13.342;2024-01-15T15:54:49;3.10;;;1.35;;
39612;SDS011;25303;48.896;13.342;2024-01-15T16:04:52;2.55;;;1.30;;
39612;SDS011;25303;48.896;13.342;2024-01-15T16:15:00;4.18;;;1.35;;
39612;SDS011;25303;48.896;13.342;2024-01-15T16:25:03;3.80;;;1.20;;
39612;SDS011;25303;48.896;13.342;2024-01-15T16:35:09;2.33;;;1.00;;
39612;SDS011;25303;48.896;13.342;2024-01-15T16:45:12;1.90;;;1.02;;
39612;SDS011;25303;48.896;13.342;2024-01-15T16:55:17;4.35;;;1.95;;
39612;SDS011;25303;48.896;13.342;2024-01-15T17:05:21;2.30;;;1.35;;
39612;SDS011;25303;48.896;13.342;2024-01-15T17:15:26;2.75;;;1.40;;
39612;SDS011;25303;48.896;13.342;2024-01-15T17:25:29;3.47;;;2.08;;
39612;SDS011;25303;48.896;13.342;2024-01-15T17:35:34;15.95;;;6.72;;
39612;SDS011;25303;48.896;13.342;2024-01-15T17:45:37;5.65;;;2.70;;
39612;SDS011;25303;48.896;13.342;2024-01-15T17:55:41;12.20;;;6.15;;
39612;SDS011;25303;48.896;13.342;2024-01-15T18:05:44;5.05;;;2.80;;
39612;SDS011;25303;48.896;13.342;2024-01-15T18:15:52;6.22;;;3.38;;
39612;SDS011;25303;48.896;13.342;2024-01-15T18:25:58;4.65;;;2.45;;
39612;SDS011;25303;48.896;13.342;2024-01-15T18:36:02;4.20;;;2.22;;
39612;SDS011;25303;48.896;13.342;2024-01-15T18:46:06;4.72;;;1.85;;
39612;SDS011;25303;48.896;13.342;2024-01-15T18:56:11;4.22;;;1.77;;
39612;SDS011;25303;48.896;13.342;2024-01-15T19:06:14;2.55;;;1.42;;
39612;SDS011;25303;48.896;13.342;2024-01-15T19:16:18;4.32;;;2.00;;
39612;SDS011;25303;48.896;13.342;2024-01-15T19:26:23;4.20;;;1.97;;
39612;SDS011;25303;48.896;13.342;2024-01-15T19:36:28;5.43;;;2.00;;
39612;SDS011;25303;48.896;13.342;2024-01-15T19:46:31;5.03;;;2.20;;
39612;SDS011;25303;48.896;13.342;2024-01-15T19:56:36;9.35;;;3.67;;
39612;SDS011;25303;48.896;13.342;2024-01-15T20:06:39;6.10;;;2.90;;
39612;SDS011;25303;48.896;13.342;2024-01-15T20:16:44;6.15;;;2.80;;
39612;SDS011;25303;48.896;13.342;2024-01-15T20:26:47;5.38;;;2.53;;
39612;SDS011;25303;48.896;13.342;2024-01-15T20:36:51;7.82;;;3.33;;
39612;SDS011;25303;48.896;13.342;2024-01-15T20:46:54;7.70;;;3.63;;
39612;SDS011;25303;48.896;13.342;2024-01-15T20:56:59;5.40;;;2.70;;
39612;SDS011;25303;48.896;13.342;2024-01-15T21:07:05;6.38;;;3.53;;
39612;SDS011;25303;48.896;13.342;2024-01-15T21:17:11;8.43;;;3.67;;
39612;SDS011;25303;48.896;13.342;2024-01-15T21:27:14;9.25;;;3.90;;
39612;SDS011;25303;48.896;13.342;2024-01-15T21:37:19;13.05;;;5.15;;
39612;SDS011;25303;48.896;13.342;2024-01-15T21:47:22;8.90;;;3.85;;
39612;SDS011;25303;48.896;13.342;2024-01-15T21:57:29;5.53;;;3.03;;
39612;SDS011;25303;48.896;13.342;2024-01-15T22:07:32;10.85;;;4.78;;
39612;SDS011;25303;48.896;13.342;2024-01-15T22:17:36;7.72;;;3.70;;
39612;SDS011;25303;48.896;13.342;2024-01-15T22:27:39;11.73;;;5.07;;
39612;SDS011;25303;48.896;13.342;2024-01-15T22:37:45;10.77;;;5.22;;
39612;SDS011;25303;48.896;13.342;2024-01-15T22:47:48;12.57;;;4.97;;
39612;SDS011;25303;48.896;13.342;2024-01-15T22:57:52;13.02;;;5.25;;
39612;SDS011;25303;48.896;13.342;2024-01-15T23:07:55;9.25;;;4.03;;
39612;SDS011;25303;48.896;13.342;2024-01-15T23:18:00;8.02;;;4.22;;
39612;SDS011;25303;48.896;13.342;2024-01-15T23:28:04;12.32;;;5.10;;
39612;SDS011;25303;48.896;13.342;2024-01-15T23:38:09;10.88;;;4.68;;
39612;SDS011;25303;48.896;13.342;2024-01-15T23:48:12;9.57;;;3.97;;
39612;SDS011;25303;48.896;13.342;2024-01-15T23:58:16;9.48;;;4.43;;
